sensor_id;sensor_type;location;lat;lon;timestamp;P1;durP1;ratioP1;P2;durP2;ratioP2
1204;SDS011;592;48.764;9.174;2024-02-04T00:00:48;2.50;;;0.90;;
1204;SDS011;592;48.764;9.174;2024-02-04T00:03:15;2.00;;;0.70;;
1204;SDS011;592;48.764;9.174;2024-02-04T00:05:42;2.07;;;0.80;;
1204;SDS011;592;48.764;9.174;2024-02-04T00:08:40;2.20;;;0.80;;
1204;SDS011;592;48.764;9.174;2024-02-04T00:14:32;2.13;;;0.70;;
1204;SDS011;592;48.764;9.174;2024-02-04T00:17:20;1.90;;;0.60;;
1204;SDS011;592;48.764;9.174;2024-02-04T00:19:55;2.10;;;0.70;;
1204;SDS011;592;48.764;9.174;2024-02-04T00:22:37;2.20;;;0.70;;
1204;SDS011;592;48.764;9.174;2024-02-04T00:25:17;1.90;;;0.60;;
1204;SDS011;592;48.764;9.174;2024-02-04T00:28:08;1.90;;;0.60;;
1204;SDS011;592;48.764;9.174;2024-02-04T00:30:47;2.00;;;0.60;;
1204;SDS011;592;48.764;9.174;2024-02-04T00:33:28;2.00;;;0.60;;
1204;SDS011;592;48.764;9.174;2024-02-04T00:36:11;2.00;;;0.70;;
1204;SDS011;592;48.764;9.174;2024-02-04T00:38:46;2.10;;;0.73;;
1204;SDS011;592;48.764;9.174;2024-02-04T00:41:31;2.00;;;0.60;;
1204;SDS011;592;48.764;9.174;2024-02-04T00:44:04;2.13;;;0.60;;
1204;SDS011;592;48.764;9.174;2024-02-04T00:46:43;1.90;;;0.60;;
1204;SDS011;592;48.764;9.174;2024-02-04T00:49:24;2.07;;;0.60;;
1204;SDS011;592;48.764;9.174;2024-02-04T00:52:00;1.80;;;0.50;;
1204;SDS011;592;48.764;9.174;2024-02-04T00:54:27;2.00;;;0.60;;
1204;SDS011;592;48.764;9.174;2024-02-04T00:56:57;2.27;;;0.67;;
1204;SDS011;592;48.764;9.174;2024-02-04T00:59:32;2.10;;;0.60;;
1204;SDS011;592;48.764;9.174;2024-02-04T01:02:02;1.80;;;0.60;;
1204;SDS011;592;48.764;9.174;2024-02-04T01:04:34;2.10;;;0.70;;
1204;SDS011;592;48.764;9.174;2024-02-04T01:07:02;2.23;;;0.70;;
1204;SDS011;592;48.764;9.174;2024-02-04T01:09:29;1.90;;;0.60;;
1204;SDS011;592;48.764;9.174;2024-02-04T01:12:02;2.93;;;0.70;;
1204;SDS011;592;48.764;9.174;2024-02-04T01:14:30;2.10;;;0.60;;
1204;SDS011;592;48.764;9.174;2024-02-04T01:17:04;1.90;;;0.60;;
1204;SDS011;592;48.764;9.174;2024-02-04T01:19:51;1.90;;;0.60;;
1204;SDS011;592;48.764;9.174;2024-02-04T01:22:21;2.40;;;0.70;;
1204;SDS011;592;48.764;9.174;2024-02-04T01:25:03;2.60;;;0.83;;
1204;SDS011;592;48.764;9.174;2024-02-04T01:27:48;1.80;;;0.60;;
1204;SDS011;592;48.764;9.174;2024-02-04T01:30:47;2.57;;;0.67;;
1204;SDS011;592;48.764;9.174;2024-02-04T01:33:24;2.20;;;0.60;;
1204;SDS011;592;48.764;9.174;2024-02-04T01:36:11;2.10;;;0.70;;
1204;SDS011;592;48.764;9.174;2024-02-04T01:38:44;2.20;;;0.63;;
1204;SDS011;592;48.764;9.174;2024-02-04T01:41:28;1.80;;;0.60;;
1204;SDS011;592;48.764;9.174;2024-02-04T01:44:01;2.77;;;0.70;;
1204;SDS011;592;48.764;9.174;2024-02-04T01:46:34;1.80;;;0.57;;
1204;SDS011;592;48.764;9.174;2024-02-04T01:49:07;2.20;;;0.60;;
1204;SDS011;592;48.764;9.174;2024-02-04T01:57:40;2.30;;;0.60;;
1204;SDS011;592;48.764;9.174;2024-02-04T02:00:36;2.60;;;0.90;;
1204;SDS011;592;48.764;9.174;2024-02-04T02:03:06;2.00;;;0.60;;
1204;SDS011;592;48.764;9.174;2024-02-04T02:05:36;2.57;;;0.73;;
1204;SDS011;592;48.764;9.174;2024-02-04T02:08:13;2.00;;;0.70;;
1204;SDS011;592;48.764;9.174;2024-02-04T02:10:47;2.00;;;0.60;;
1204;SDS011;592;48.764;9.174;2024-02-04T02:13:30;2.00;;;0.70;;
1204;SDS011;592;48.764;9.174;2024-02-04T02:16:04;1.90;;;0.67;;
1204;SDS011;592;48.764;9.174;2024-02-04T02:22:14;2.00;;;0.60;;
1204;SDS011;592;48.764;9.174;2024-02-04T02:24:59;2.00;;;0.63;;
1204;SDS011;592;48.764;9.174;2024-02-04T02:27:57;1.90;;;0.60;;
1204;SDS011;592;48.764;9.174;2024-02-04T02:30:46;2.13;;;0.70;;
1204;SDS011;592;48.764;9.174;2024-02-04T02:33:28;2.10;;;0.70;;
1204;SDS011;592;48.764;9.174;2024-02-04T02:36:32;1.83;;;0.60;;
1204;SDS011;592;48.764;9.174;2024-02-04T02:39:18;2.10;;;0.70;;
1204;SDS011;592;48.764;9.174;2024-02-04T02:43:01;1.90;;;0.50;;
1204;SDS011;592;48.764;9.174;2024-02-04T02:45:43;1.90;;;0.60;;
1204;SDS011;592;48.764;9.174;2024-02-04T02:48:21;1.90;;;0.60;;
1204;SDS011;592;48.764;9.174;2024-02-04T02:51:04;2.00;;;0.60;;
1204;SDS011;592;48.764;9.174;2024-02-04T02:53:40;2.27;;;0.70;;
1204;SDS011;592;48.764;9.174;2024-02-04T02:56:40;1.90;;;0.60;;
1204;SDS011;592;48.764;9.174;2024-02-04T03:02:41;1.80;;;0.60;;
1204;SDS011;592;48.764;9.174;2024-02-04T03:05:15;1.90;;;0.70;;
1204;SDS011;592;48.764;9.174;2024-02-04T03:07:50;2.10;;;0.70;;
1204;SDS011;592;48.764;9.174;2024-02-04T03:10:21;1.90;;;0.60;;
1204;SDS011;592;48.764;9.174;2024-02-04T03:12:57;2.20;;;0.63;;
1204;SDS011;592;48.764;9.174;2024-02-04T03:18:12;1.90;;;0.67;;
1204;SDS011;592;48.764;9.174;2024-02-04T03:20:48;1.83;;;0.53;;
1204;SDS011;592;48.764;9.174;2024-02-04T03:23:17;2.00;;;0.70;;
1204;SDS011;592;48.764;9.174;2024-02-04T03:25:48;1.90;;;0.60;;
1204;SDS011;592;48.764;9.174;2024-02-04T03:28:25;2.20;;;0.70;;
1204;SDS011;592;48.764;9.174;2024-02-04T03:37:17;2.00;;;0.70;;
1204;SDS011;592;48.764;9.174;2024-02-04T03:40:23;1.90;;;0.60;;
1204;SDS011;592;48.764;9.174;2024-02-04T03:43:08;2.00;;;0.70;;
1204;SDS011;592;48.764;9.174;2024-02-04T03:45:54;2.03;;;0.70;;
1204;SDS011;592;48.764;9.174;2024-02-04T03:48:38;1.90;;;0.60;;
1204;SDS011;592;48.764;9.174;2024-02-04T03:51:21;1.90;;;0.70;;
1204;SDS011;592;48.764;9.174;2024-02-04T03:54:08;1.87;;;0.60;;
1204;SDS011;592;48.764;9.174;2024-02-04T03:57:08;1.87;;;0.60;;
1204;SDS011;592;48.764;9.174;2024-02-04T03:59:47;2.10;;;0.70;;
1204;SDS011;592;48.764;9.174;2024-02-04T04:02:31;2.30;;;0.70;;
1204;SDS011;592;48.764;9.174;2024-02-04T04:05:12;1.90;;;0.60;;
1204;SDS011;592;48.764;9.174;2024-02-04T04:11:17;1.90;;;0.60;;
1204;SDS011;592;48.764;9.174;2024-02-04T04:14:05;1.90;;;0.50;;
1204;SDS011;592;48.764;9.174;2024-02-04T04:16:53;1.90;;;0.60;;
1204;SDS011;592;48.764;9.174;2024-02-04T04:19:34;2.00;;;0.70;;
1204;SDS011;592;48.764;9.174;2024-02-04T04:22:07;2.23;;;0.70;;
1204;SDS011;592;48.764;9.174;2024-02-04T04:27:58;1.90;;;0.60;;
1204;SDS011;592;48.764;9.174;2024-02-04T04:31:00;3.50;;;0.63;;
1204;SDS011;592;48.764;9.174;2024-02-04T04:33:35;1.80;;;0.50;;
1204;SDS011;592;48.764;9.174;2024-02-04T04:36:25;2.10;;;0.70;;
1204;SDS011;592;48.764;9.174;2024-02-04T04:38:57;1.80;;;0.60;;
1204;SDS011;592;48.764;9.174;2024-02-04T04:44:40;1.80;;;0.50;;
1204;SDS011;592;48.764;9.174;2024-02-04T04:47:16;1.80;;;0.60;;
1204;SDS011;592;48.764;9.174;2024-02-04T04:49:49;1.90;;;0.60;;
1204;SDS011;592;48.764;9.174;2024-02-04T04:52:28;1.90;;;0.60;;
1204;SDS011;592;48.764;9.174;2024-02-04T04:55:00;2.00;;;0.60;;
1204;SDS011;592;48.764;9.174;2024-02-04T05:00:56;1.87;;;0.60;;
1204;SDS011;592;48.764;9.174;2024-02-04T05:03:25;1.80;;;0.60;;
1204;SDS011;592;48.764;9.174;2024-02-04T05:05:57;1.80;;;0.60;;
1204;SDS011;592;48.764;9.174;2024-02-04T05:08:31;1.90;;;0.60;;
1204;SDS011;592;48.764;9.174;2024-02-04T05:11:00;2.00;;;0.63;;
1204;SDS011;592;48.764;9.174;2024-02-04T05:16:43;1.80;;;0.60;;
1204;SDS011;592;48.764;9.174;2024-02-04T05:19:15;2.03;;;0.70;;
1204;SDS011;592;48.764;9.174;2024-02-04T05:21:47;2.00;;;0.63;;
1204;SDS011;592;48.764;9.174;2024-02-04T05:24:39;1.80;;;0.60;;
1204;SDS011;592;48.764;9.174;2024-02-04T05:27:17;1.87;;;0.50;;
1204;SDS011;592;48.764;9.174;2024-02-04T05:33:08;1.90;;;0.60;;
1204;SDS011;592;48.764;9.174;2024-02-04T05:39:08;2.10;;;0.70;;
1204;SDS011;592;48.764;9.174;2024-02-04T05:42:13;2.40;;;0.70;;
1204;SDS011;592;48.764;9.174;2024-02-04T05:45:04;1.77;;;0.50;;
1204;SDS011;592;48.764;9.174;2024-02-04T05:48:01;1.90;;;0.60;;
1204;SDS011;592;48.764;9.174;2024-02-04T05:56:56;2.57;;;0.60;;
1204;SDS011;592;48.764;9.174;2024-02-04T05:59:33;1.87;;;0.60;;
1204;SDS011;592;48.764;9.174;2024-02-04T06:02:20;2.00;;;0.60;;
1204;SDS011;592;48.764;9.174;2024-02-04T06:05:08;1.90;;;0.60;;
1204;SDS011;592;48.764;9.174;2024-02-04T06:11:00;1.80;;;0.60;;
1204;SDS011;592;48.764;9.174;2024-02-04T06:13:37;1.90;;;0.60;;
1204;SDS011;592;48.764;9.174;2024-02-04T06:16:21;2.00;;;0.60;;
1204;SDS011;592;48.764;9.174;2024-02-04T06:18:54;1.80;;;0.50;;
1204;SDS011;592;48.764;9.174;2024-02-04T06:21:29;1.80;;;0.60;;
1204;SDS011;592;48.764;9.174;2024-02-04T06:26:57;1.80;;;0.60;;
1204;SDS011;592;48.764;9.174;2024-02-04T06:29:49;6.87;;;0.70;;
1204;SDS011;592;48.764;9.174;2024-02-04T06:32:44;1.80;;;0.60;;
1204;SDS011;592;48.764;9.174;2024-02-04T06:35:17;1.83;;;0.60;;
1204;SDS011;592;48.764;9.174;2024-02-04T06:38:30;1.80;;;0.50;;
1204;SDS011;592;48.764;9.174;2024-02-04T06:44:36;2.23;;;0.70;;
1204;SDS011;592;48.764;9.174;2024-02-04T06:47:20;1.80;;;0.60;;
1204;SDS011;592;48.764;9.174;2024-02-04T06:50:06;1.83;;;0.53;;
1204;SDS011;592;48.764;9.174;2024-02-04T06:52:59;2.00;;;0.60;;
1204;SDS011;592;48.764;9.174;2024-02-04T07:02:18;2.10;;;0.70;;
1204;SDS011;592;48.764;9.174;2024-02-04T07:04:54;1.90;;;0.60;;
1204;SDS011;592;48.764;9.174;2024-02-04T07:07:33;1.90;;;0.60;;
1204;SDS011;592;48.764;9.174;2024-02-04T07:10:27;1.80;;;0.60;;
1204;SDS011;592;48.764;9.174;2024-02-04T07:12:59;2.50;;;0.80;;
1204;SDS011;592;48.764;9.174;2024-02-04T07:25:14;1.80;;;0.50;;
1204;SDS011;592;48.764;9.174;2024-02-04T07:28:04;2.20;;;0.70;;
1204;SDS011;592;48.764;9.174;2024-02-04T07:31:06;1.87;;;0.60;;
1204;SDS011;592;48.764;9.174;2024-02-04T07:33:50;1.80;;;0.50;;
1204;SDS011;592;48.764;9.174;2024-02-04T07:36:48;1.87;;;0.60;;
1204;SDS011;592;48.764;9.174;2024-02-04T07:39:43;2.50;;;0.63;;
1204;SDS011;592;48.764;9.174;2024-02-04T07:42:26;2.00;;;0.70;;
1204;SDS011;592;48.764;9.174;2024-02-04T07:44:53;1.87;;;0.60;;
1204;SDS011;592;48.764;9.174;2024-02-04T07:47:21;1.80;;;0.60;;
1204;SDS011;592;48.764;9.174;2024-02-04T07:49:47;1.80;;;0.60;;
1204;SDS011;592;48.764;9.174;2024-02-04T07:52:14;2.73;;;0.60;;
1204;SDS011;592;48.764;9.174;2024-02-04T07:54:42;2.53;;;0.87;;
1204;SDS011;592;48.764;9.174;2024-02-04T07:57:10;2.50;;;0.90;;
1204;SDS011;592;48.764;9.174;2024-02-04T07:59:36;1.97;;;0.70;;
1204;SDS011;592;48.764;9.174;2024-02-04T08:02:03;2.23;;;0.80;;
1204;SDS011;592;48.764;9.174;2024-02-04T08:04:32;2.20;;;0.73;;
1204;SDS011;592;48.764;9.174;2024-02-04T08:06:59;2.23;;;0.90;;
1204;SDS011;592;48.764;9.174;2024-02-04T08:09:25;2.70;;;1.10;;
1204;SDS011;592;48.764;9.174;2024-02-04T08:11:53;2.33;;;1.00;;
1204;SDS011;592;48.764;9.174;2024-02-04T08:14:20;3.10;;;1.10;;
1204;SDS011;592;48.764;9.174;2024-02-04T08:16:47;2.20;;;0.80;;
1204;SDS011;592;48.764;9.174;2024-02-04T08:19:14;2.77;;;1.10;;
1204;SDS011;592;48.764;9.174;2024-02-04T08:21:41;2.40;;;0.90;;
1204;SDS011;592;48.764;9.174;2024-02-04T08:24:08;2.87;;;0.93;;
1204;SDS011;592;48.764;9.174;2024-02-04T08:26:36;2.73;;;0.97;;
1204;SDS011;592;48.764;9.174;2024-02-04T08:29:05;2.00;;;0.60;;
1204;SDS011;592;48.764;9.174;2024-02-04T08:31:32;3.30;;;0.97;;
1204;SDS011;592;48.764;9.174;2024-02-04T08:33:59;3.57;;;1.40;;
1204;SDS011;592;48.764;9.174;2024-02-04T08:36:27;6.17;;;0.97;;
1204;SDS011;592;48.764;9.174;2024-02-04T08:38:56;1.90;;;0.70;;
1204;SDS011;592;48.764;9.174;2024-02-04T08:41:30;2.70;;;0.90;;
1204;SDS011;592;48.764;9.174;2024-02-04T08:43:57;2.47;;;0.87;;
1204;SDS011;592;48.764;9.174;2024-02-04T08:46:25;1.90;;;0.70;;
1204;SDS011;592;48.764;9.174;2024-02-04T08:48:52;2.40;;;0.90;;
1204;SDS011;592;48.764;9.174;2024-02-04T08:51:19;2.70;;;0.73;;
1204;SDS011;592;48.764;9.174;2024-02-04T08:53:46;2.37;;;0.80;;
1204;SDS011;592;48.764;9.174;2024-02-04T08:56:13;2.20;;;0.80;;
1204;SDS011;592;48.764;9.174;2024-02-04T08:58:39;2.40;;;0.80;;
1204;SDS011;592;48.764;9.174;2024-02-04T09:01:06;2.00;;;0.70;;
1204;SDS011;592;48.764;9.174;2024-02-04T09:03:34;2.20;;;0.70;;
1204;SDS011;592;48.764;9.174;2024-02-04T09:06:01;2.07;;;0.70;;
1204;SDS011;592;48.764;9.174;2024-02-04T09:08:31;2.50;;;0.90;;
1204;SDS011;592;48.764;9.174;2024-02-04T09:10:58;2.13;;;0.80;;
1204;SDS011;592;48.764;9.174;2024-02-04T09:13:25;2.40;;;0.60;;
1204;SDS011;592;48.764;9.174;2024-02-04T09:15:55;1.80;;;0.60;;
1204;SDS011;592;48.764;9.174;2024-02-04T09:18:21;1.90;;;0.60;;
1204;SDS011;592;48.764;9.174;2024-02-04T09:20:58;1.87;;;0.60;;
1204;SDS011;592;48.764;9.174;2024-02-04T09:23:26;2.43;;;0.80;;
1204;SDS011;592;48.764;9.174;2024-02-04T09:25:53;2.00;;;0.60;;
1204;SDS011;592;48.764;9.174;2024-02-04T09:28:20;2.27;;;0.70;;
1204;SDS011;592;48.764;9.174;2024-02-04T09:30:47;1.90;;;0.63;;
1204;SDS011;592;48.764;9.174;2024-02-04T09:33:14;1.90;;;0.60;;
1204;SDS011;592;48.764;9.174;2024-02-04T09:35:40;1.80;;;0.50;;
1204;SDS011;592;48.764;9.174;2024-02-04T09:41:09;1.90;;;0.60;;
1204;SDS011;592;48.764;9.174;2024-02-04T09:43:36;1.83;;;0.57;;
1204;SDS011;592;48.764;9.174;2024-02-04T09:46:09;1.90;;;0.60;;
1204;SDS011;592;48.764;9.174;2024-02-04T09:48:37;1.80;;;0.60;;
1204;SDS011;592;48.764;9.174;2024-02-04T09:54:29;1.90;;;0.60;;
1204;SDS011;592;48.764;9.174;2024-02-04T09:57:02;1.80;;;0.60;;
1204;SDS011;592;48.764;9.174;2024-02-04T09:59:47;1.87;;;0.60;;
1204;SDS011;592;48.764;9.174;2024-02-04T10:02:16;2.20;;;0.67;;
1204;SDS011;592;48.764;9.174;2024-02-04T10:04:57;2.10;;;0.70;;
1204;SDS011;592;48.764;9.174;2024-02-04T10:07:26;1.87;;;0.60;;
1204;SDS011;592;48.764;9.174;2024-02-04T10:10:27;1.80;;;0.50;;
1204;SDS011;592;48.764;9.174;2024-02-04T10:13:15;1.80;;;0.50;;
1204;SDS011;592;48.764;9.174;2024-02-04T10:16:11;2.00;;;0.60;;
1204;SDS011;592;48.764;9.174;2024-02-04T10:39:43;1.90;;;0.60;;
1204;SDS011;592;48.764;9.174;2024-02-04T10:42:36;1.90;;;0.50;;
1204;SDS011;592;48.764;9.174;2024-02-04T10:45:17;2.00;;;0.60;;
1204;SDS011;592;48.764;9.174;2024-02-04T10:47:56;2.30;;;0.73;;
1204;SDS011;592;48.764;9.174;2024-02-04T10:50:31;1.80;;;0.50;;
1204;SDS011;592;48.764;9.174;2024-02-04T10:53:03;1.80;;;0.50;;
1204;SDS011;592;48.764;9.174;2024-02-04T10:55:50;1.90;;;0.60;;
1204;SDS011;592;48.764;9.174;2024-02-04T10:58:43;2.00;;;0.63;;
1204;SDS011;592;48.764;9.174;2024-02-04T11:01:13;1.90;;;0.60;;
1204;SDS011;592;48.764;9.174;2024-02-04T11:04:10;1.83;;;0.50;;
1204;SDS011;592;48.764;9.174;2024-02-04T11:06:55;2.00;;;0.60;;
1204;SDS011;592;48.764;9.174;2024-02-04T11:09:26;2.20;;;0.70;;
1204;SDS011;592;48.764;9.174;2024-02-04T11:11:55;1.90;;;0.60;;
1204;SDS011;592;48.764;9.174;2024-02-04T11:14:30;2.07;;;0.70;;
1204;SDS011;592;48.764;9.174;2024-02-04T11:17:17;2.40;;;0.67;;
1204;SDS011;592;48.764;9.174;2024-02-04T11:20:15;2.00;;;0.60;;
1204;SDS011;592;48.764;9.174;2024-02-04T12:42:06;1.90;;;0.60;;
1204;SDS011;592;48.764;9.174;2024-02-04T12:47:11;2.47;;;0.70;;
1204;SDS011;592;48.764;9.174;2024-02-04T12:49:50;2.20;;;0.67;;
1204;SDS011;592;48.764;9.174;2024-02-04T12:52:20;1.90;;;0.60;;
1204;SDS011;592;48.764;9.174;2024-02-04T12:54:53;2.00;;;0.60;;
1204;SDS011;592;48.764;9.174;2024-02-04T20:59:44;3.00;;;1.30;;
1204;SDS011;592;48.764;9.174;2024-02-04T21:02:15;3.57;;;1.13;;
1204;SDS011;592;48.764;9.174;2024-02-04T21:05:25;2.50;;;1.07;;
1204;SDS011;592;48.764;9.174;2024-02-04T21:08:30;2.63;;;1.00;;
1204;SDS011;592;48.764;9.174;2024-02-04T21:17:42;2.77;;;1.10;;
1204;SDS011;592;48.764;9.174;2024-02-04T21:20:37;3.67;;;0.97;;
1204;SDS011;592;48.764;9.174;2024-02-04T21:23:35;2.77;;;1.20;;
1204;SDS011;592;48.764;9.174;2024-02-04T21:26:34;3.47;;;1.30;;
1204;SDS011;592;48.764;9.174;2024-02-04T21:29:25;2.33;;;1.03;;
1204;SDS011;592;48.764;9.174;2024-02-04T21:32:34;2.70;;;1.00;;
1204;SDS011;592;48.764;9.174;2024-02-04T21:35:23;3.67;;;1.33;;
1204;SDS011;592;48.764;9.174;2024-02-04T21:41:27;3.30;;;1.57;;
1204;SDS011;592;48.764;9.174;2024-02-04T21:44:15;2.37;;;0.97;;
1204;SDS011;592;48.764;9.174;2024-02-04T21:46:54;2.43;;;0.90;;
1204;SDS011;592;48.764;9.174;2024-02-04T21:49:28;2.13;;;0.80;;
1204;SDS011;592;48.764;9.174;2024-02-04T21:55:07;4.63;;;1.10;;
1204;SDS011;592;48.764;9.174;2024-02-04T21:57:58;2.10;;;0.80;;
1204;SDS011;592;48.764;9.174;2024-02-04T22:00:34;2.20;;;0.90;;
1204;SDS011;592;48.764;9.174;2024-02-04T22:03:21;2.30;;;1.00;;
1204;SDS011;592;48.764;9.174;2024-02-04T22:05:55;2.97;;;0.87;;
1204;SDS011;592;48.764;9.174;2024-02-04T22:08:26;4.83;;;0.90;;
1204;SDS011;592;48.764;9.174;2024-02-04T22:10:57;2.30;;;0.90;;
1204;SDS011;592;48.764;9.174;2024-02-04T22:13:24;2.30;;;0.97;;
1204;SDS011;592;48.764;9.174;2024-02-04T22:15:53;2.30;;;0.90;;
1204;SDS011;592;48.764;9.174;2024-02-04T22:18:19;5.93;;;0.80;;
1204;SDS011;592;48.764;9.174;2024-02-04T22:20:46;2.23;;;0.90;;
1204;SDS011;592;48.764;9.174;2024-02-04T22:23:14;2.40;;;1.20;;
1204;SDS011;592;48.764;9.174;2024-02-04T22:25:41;4.73;;;1.30;;
1204;SDS011;592;48.764;9.174;2024-02-04T22:28:08;2.70;;;0.90;;
1204;SDS011;592;48.764;9.174;2024-02-04T22:30:36;2.20;;;0.90;;
1204;SDS011;592;48.764;9.174;2024-02-04T22:33:03;2.37;;;0.90;;
1204;SDS011;592;48.764;9.174;2024-02-04T22:35:30;2.77;;;1.00;;
1204;SDS011;592;48.764;9.174;2024-02-04T22:37:56;2.37;;;0.90;;
1204;SDS011;592;48.764;9.174;2024-02-04T22:40:25;2.73;;;1.00;;
1204;SDS011;592;48.764;9.174;2024-02-04T22:42:51;3.10;;;1.10;;
1204;SDS011;592;48.764;9.174;2024-02-04T22:45:18;4.53;;;1.20;;
1204;SDS011;592;48.764;9.174;2024-02-04T22:47:45;2.90;;;1.20;;
1204;SDS011;592;48.764;9.174;2024-02-04T22:50:12;2.37;;;1.03;;
1204;SDS011;592;48.764;9.174;2024-02-04T22:52:39;2.17;;;0.83;;
1204;SDS011;592;48.764;9.174;2024-02-04T22:55:06;2.60;;;1.00;;
1204;SDS011;592;48.764;9.174;2024-02-04T22:57:35;2.77;;;1.20;;
1204;SDS011;592;48.764;9.174;2024-02-04T23:00:02;3.10;;;1.10;;
1204;SDS011;592;48.764;9.174;2024-02-04T23:02:35;3.40;;;1.60;;
1204;SDS011;592;48.764;9.174;2024-02-04T23:05:02;3.10;;;1.07;;
1204;SDS011;592;48.764;9.174;2024-02-04T23:07:29;2.67;;;1.10;;
1204;SDS011;592;48.764;9.174;2024-02-04T23:09:56;2.27;;;0.90;;
1204;SDS011;592;48.764;9.174;2024-02-04T23:12:23;2.90;;;1.20;;
1204;SDS011;592;48.764;9.174;2024-02-04T23:14:51;3.60;;;1.27;;
1204;SDS011;592;48.764;9.174;2024-02-04T23:17:17;2.63;;;1.27;;
1204;SDS011;592;48.764;9.174;2024-02-04T23:19:44;2.40;;;0.90;;
1204;SDS011;592;48.764;9.174;2024-02-04T23:22:11;2.07;;;0.80;;
1204;SDS011;592;48.764;9.174;2024-02-04T23:24:38;2.60;;;0.90;;
1204;SDS011;592;48.764;9.174;2024-02-04T23:27:04;4.40;;;1.10;;
1204;SDS011;592;48.764;9.174;2024-02-04T23:29:31;2.90;;;1.00;;
1204;SDS011;592;48.764;9.174;2024-02-04T23:31:59;2.73;;;1.10;;
1204;SDS011;592;48.764;9.174;2024-02-04T23:34:26;2.67;;;1.10;;
1204;SDS011;592;48.764;9.174;2024-02-04T23:36:52;2.70;;;1.00;;
1204;SDS011;592;48.764;9.174;2024-02-04T23:39:19;2.30;;;0.90;;
1204;SDS011;592;48.764;9.174;2024-02-04T23:41:46;2.47;;;1.00;;
1204;SDS011;592;48.764;9.174;2024-02-04T23:44:13;2.33;;;1.00;;
1204;SDS011;592;48.764;9.174;2024-02-04T23:46:40;3.47;;;1.43;;
1204;SDS011;592;48.764;9.174;2024-02-04T23:49:08;2.87;;;1.20;;
1204;SDS011;592;48.764;9.174;2024-02-04T23:51:37;2.90;;;1.17;;
1204;SDS011;592;48.764;9.174;2024-02-04T23:54:04;2.90;;;1.00;;
1204;SDS011;592;48.764;9.174;2024-02-04T23:56:31;2.20;;;0.90;;
1204;SDS011;592;48.764;9.174;2024-02-04T23:58:58;4.17;;;1.43;;
